Current | Forecast
Updated: 5:00 PM JST on April 27, 2018
Observed at Memambetsu, Japan
Temperature 45°F
Windchill 39°F
Humidity 43%
Dew Point 23°F
Wind NNE at 12 mph
Pressure 29.77 in (Rising)
Conditions Partly Cloudy
Visibility 6.2 miles
UV 1 out of 16
Clouds (FEW) : 4000 ft
Yesterday's Maximum 50°F
Yesterday's Minimum 39°F approx.
Yesterday's Heating Degree Days 20 approx.
Sunrise4:24 AM JST
Sunset6:24 PM JST
Moon Rise3:13 PM JST
Moon Set3:16 AM JST
Moon PhaseMoon Phase
Waxing Gibbous
Raw METARMETAR RJCM 270800Z 02010KT 9999 FEW040 BKN/// 07/M05 Q1008


Monday
. High: 71° F.
Tuesday
. High: 64° F.
Wednesday
. High: 55° F.
Thursday
. High: 66° F.
Friday
. High: 57° F.
Saturday
. High: 62° F.
Sunday
. High: 48° F.
Monday
. High: 46° F.

Units: English | Metric

Find the Weather for any City, State or Zipcode, or Country:

U.S. State List | Severe Weather | Tropical Storms | Ski Conditions
United States | Canada | Central America | South America | Asia | Europe | Australia | Africa | Islands

Weather Underground

© Copyright 2018
The Weather Company, LLC